Time;durP1;ratioP1;P1;durP2;ratioP2;P2;SDS_P1;SDS_P2;PMS_P1;PMS_P2;Temp;Humidity;BMP_temperature;BMP_pressure;BME280_temperature;BME280_humidity;BME280_pressure;Samples;Min_cycle;Max_cycle;Signal;HPM_P1;HPM_P2
2021/03/13 00:01:47;;;;;;;143.70;74.53;;;;;;;;;;4342415;33;20261;-58
2021/03/13 00:04:12;;;;;;;193.40;93.00;;;;;;;;;;4356596;32;20271;-57
2021/03/13 00:06:38;;;;;;;211.53;103.07;;;;;;;;;;4355296;33;20254;-58
2021/03/13 00:09:04;;;;;;;189.67;97.27;;;;;;;;;;4356941;33;20289;-57
2021/03/13 00:11:29;;;;;;;219.40;113.50;;;;;;;;;;4343020;33;20308;-58
2021/03/13 00:13:54;;;;;;;184.40;94.47;;;;;;;;;;4356335;33;20268;-60
2021/03/13 00:16:20;;;;;;;193.17;99.27;;;;;;;;;;4342943;33;20401;-58
2021/03/13 00:18:46;;;;;;;183.80;92.97;;;;;;;;;;4356503;32;20617;-58
2021/03/13 00:21:11;;;;;;;160.70;84.80;;;;;;;;;;4356676;32;20403;-58
2021/03/13 00:23:36;;;;;;;145.17;76.37;;;;;;;;;;4344333;32;20983;-58
2021/03/13 00:26:03;;;;;;;155.53;71.83;;;;;;;;;;4340666;33;20332;-58
2021/03/13 00:28:28;;;;;;;157.10;78.03;;;;;;;;;;4352980;33;20703;-59
2021/03/13 00:30:54;;;;;;;153.43;73.87;;;;;;;;;;4355829;32;20663;-60
2021/03/13 00:33:22;;;;;;;137.13;69.67;;;;;;;;;;4355660;32;20215;-58
2021/03/13 00:35:51;;;;;;;125.80;62.97;;;;;;;;;;4355934;32;20702;-58
2021/03/13 00:38:18;;;;;;;117.20;59.47;;;;;;;;;;4350016;32;20290;-57
2021/03/13 00:40:45;;;;;;;109.23;58.17;;;;;;;;;;4341776;33;20214;-59
2021/03/13 00:43:13;;;;;;;115.20;59.97;;;;;;;;;;4337537;33;20269;-58
2021/03/13 00:45:39;;;;;;;103.43;54.33;;;;;;;;;;4356804;33;20203;-58
2021/03/13 00:48:05;;;;;;;105.90;54.27;;;;;;;;;;4351316;32;20281;-59
2021/03/13 00:50:33;;;;;;;98.00;52.43;;;;;;;;;;4328333;33;20313;-59
2021/03/13 00:52:59;;;;;;;100.87;55.13;;;;;;;;;;4349641;33;20273;-59
2021/03/13 00:55:25;;;;;;;100.43;55.30;;;;;;;;;;4347969;33;20297;-58
2021/03/13 00:57:51;;;;;;;93.10;53.63;;;;;;;;;;4342329;33;20285;-58
2021/03/13 01:00:19;;;;;;;106.90;58.13;;;;;;;;;;4342718;33;20844;-58
2021/03/13 01:02:46;;;;;;;127.63;64.73;;;;;;;;;;4350150;32;20237;-63
2021/03/13 01:05:12;;;;;;;129.17;70.40;;;;;;;;;;4358937;32;20222;-61
2021/03/13 01:07:39;;;;;;;127.17;70.70;;;;;;;;;;4358094;32;20333;-57
2021/03/13 01:10:15;;;;;;;126.53;71.83;;;;;;;;;;4358191;32;20257;-58
2021/03/13 01:12:41;;;;;;;126.73;68.17;;;;;;;;;;4358330;32;20240;-57
2021/03/13 01:15:11;;;;;;;130.60;69.40;;;;;;;;;;4358675;32;20684;-58
2021/03/13 01:17:36;;;;;;;123.63;67.83;;;;;;;;;;4358055;32;20255;-57
2021/03/13 01:20:04;;;;;;;118.97;67.70;;;;;;;;;;4357545;32;20751;-58
2021/03/13 01:22:30;;;;;;;128.50;71.07;;;;;;;;;;4352290;32;20325;-58
2021/03/13 01:24:55;;;;;;;135.10;72.33;;;;;;;;;;4330154;33;20281;-60
2021/03/13 01:27:21;;;;;;;125.10;69.60;;;;;;;;;;4347695;32;20252;-59
2021/03/13 01:29:46;;;;;;;135.20;71.07;;;;;;;;;;4354897;32;20281;-58
2021/03/13 01:32:12;;;;;;;120.80;64.97;;;;;;;;;;4349737;32;20714;-59
2021/03/13 01:34:37;;;;;;;121.40;66.60;;;;;;;;;;4358111;32;20323;-58
2021/03/13 01:37:03;;;;;;;121.27;69.20;;;;;;;;;;4344437;32;20339;-58
2021/03/13 01:39:29;;;;;;;124.70;68.23;;;;;;;;;;4340354;33;20227;-59
2021/03/13 01:41:54;;;;;;;130.27;67.67;;;;;;;;;;4331286;32;20577;-56
2021/03/13 01:44:20;;;;;;;134.47;72.23;;;;;;;;;;4357286;32;20597;-57
2021/03/13 01:46:46;;;;;;;130.80;72.40;;;;;;;;;;4344596;32;20747;-56
2021/03/13 01:49:21;;;;;;;137.40;72.27;;;;;;;;;;4346231;32;20317;-56
2021/03/13 01:51:47;;;;;;;145.60;75.33;;;;;;;;;;4344566;32;20402;-57
2021/03/13 01:54:12;;;;;;;133.23;68.60;;;;;;;;;;4358297;32;20234;-56
2021/03/13 01:56:40;;;;;;;135.23;72.93;;;;;;;;;;4356655;32;20820;-57
2021/03/13 01:59:05;;;;;;;127.27;68.67;;;;;;;;;;4353508;32;20211;-57
2021/03/13 02:01:31;;;;;;;134.17;72.43;;;;;;;;;;4342674;33;20367;-57
2021/03/13 02:03:59;;;;;;;128.53;71.07;;;;;;;;;;4367116;32;20242;-57
2021/03/13 02:06:24;;;;;;;136.77;69.10;;;;;;;;;;4357108;32;20245;-57
2021/03/13 02:09:01;;;;;;;130.03;71.97;;;;;;;;;;4357203;32;20226;-56
2021/03/13 02:11:41;;;;;;;122.13;67.90;;;;;;;;;;4358023;32;20689;-55
2021/03/13 02:14:12;;;;;;;127.33;67.33;;;;;;;;;;4343386;33;20392;-56
2021/03/13 02:17:06;;;;;;;113.53;64.23;;;;;;;;;;4343133;32;20357;-56
2021/03/13 02:20:09;;;;;;;110.63;61.90;;;;;;;;;;4331912;32;20492;-56
2021/03/13 02:22:38;;;;;;;114.10;62.57;;;;;;;;;;4351807;32;20303;-55
2021/03/13 02:25:09;;;;;;;119.60;62.23;;;;;;;;;;4343324;33;20625;-57
2021/03/13 02:28:02;;;;;;;120.63;61.30;;;;;;;;;;4348742;32;20245;-55
2021/03/13 02:30:29;;;;;;;119.03;64.13;;;;;;;;;;4357543;32;20262;-59
2021/03/13 02:33:07;;;;;;;116.83;63.10;;;;;;;;;;4356349;32;20234;-58
2021/03/13 02:35:43;;;;;;;110.80;60.50;;;;;;;;;;4344367;32;20206;-60
2021/03/13 02:38:51;;;;;;;89.60;50.57;;;;;;;;;;4356083;32;20353;-57
2021/03/13 02:41:20;;;;;;;94.87;54.13;;;;;;;;;;4324818;33;20231;-56
2021/03/13 02:43:51;;;;;;;100.97;54.47;;;;;;;;;;4353583;32;20737;-57
2021/03/13 02:46:19;;;;;;;83.57;47.83;;;;;;;;;;4357637;32;20637;-57
2021/03/13 02:48:46;;;;;;;84.87;45.67;;;;;;;;;;4334911;33;20238;-55
2021/03/13 02:51:15;;;;;;;80.00;45.53;;;;;;;;;;4342354;33;20616;-56
2021/03/13 02:53:41;;;;;;;75.20;44.10;;;;;;;;;;4354876;32;20276;-57
2021/03/13 02:56:08;;;;;;;73.17;41.43;;;;;;;;;;4356551;32;20289;-57
2021/03/13 02:58:35;;;;;;;78.87;42.97;;;;;;;;;;4356846;32;20230;-56
2021/03/13 03:01:02;;;;;;;93.63;46.37;;;;;;;;;;4328025;33;20235;-56
2021/03/13 03:03:28;;;;;;;81.07;42.27;;;;;;;;;;4352607;32;20305;-57
2021/03/13 03:05:55;;;;;;;73.87;39.57;;;;;;;;;;4356856;32;20234;-58
2021/03/13 03:08:22;;;;;;;82.37;44.40;;;;;;;;;;4356158;32;20664;-56
2021/03/13 03:10:49;;;;;;;105.33;53.43;;;;;;;;;;4352812;32;20309;-57
2021/03/13 03:13:16;;;;;;;114.33;58.43;;;;;;;;;;4356584;32;20263;-58
2021/03/13 03:15:43;;;;;;;118.87;60.67;;;;;;;;;;4356215;32;20275;-58
2021/03/13 03:18:16;;;;;;;98.87;53.23;;;;;;;;;;4343235;32;20340;-57
2021/03/13 03:20:45;;;;;;;90.73;52.07;;;;;;;;;;4357207;32;20548;-57
2021/03/13 03:23:11;;;;;;;89.57;44.17;;;;;;;;;;4346885;32;20239;-57
2021/03/13 03:25:37;;;;;;;80.23;42.33;;;;;;;;;;4342021;33;20294;-57
2021/03/13 03:28:03;;;;;;;75.30;42.07;;;;;;;;;;4336739;32;20262;-57
2021/03/13 03:30:31;;;;;;;70.30;42.37;;;;;;;;;;4355763;32;20233;-60
2021/03/13 03:32:58;;;;;;;75.90;42.10;;;;;;;;;;4353624;32;20257;-57
2021/03/13 03:35:25;;;;;;;75.53;41.77;;;;;;;;;;4342552;32;20242;-57
2021/03/13 03:37:52;;;;;;;89.33;45.90;;;;;;;;;;4355200;32;20249;-59
2021/03/13 03:40:19;;;;;;;81.17;46.87;;;;;;;;;;4347696;32;20293;-59
2021/03/13 03:42:49;;;;;;;81.50;44.67;;;;;;;;;;4348697;32;20248;-59
2021/03/13 03:45:20;;;;;;;87.43;47.67;;;;;;;;;;4357207;32;20206;-59
2021/03/13 03:47:48;;;;;;;90.23;47.87;;;;;;;;;;4354141;33;20273;-59
2021/03/13 03:50:14;;;;;;;80.57;46.00;;;;;;;;;;4342274;33;20203;-60
2021/03/13 03:52:43;;;;;;;87.40;48.57;;;;;;;;;;4347997;33;20592;-58
2021/03/13 03:55:11;;;;;;;90.03;50.13;;;;;;;;;;4356871;33;20202;-59
2021/03/13 03:57:39;;;;;;;100.00;51.03;;;;;;;;;;4350834;32;20281;-59
2021/03/13 04:00:06;;;;;;;86.80;48.50;;;;;;;;;;4342043;33;20612;-59
2021/03/13 04:02:35;;;;;;;99.13;52.13;;;;;;;;;;4333587;33;20256;-59
2021/03/13 04:05:02;;;;;;;85.83;51.70;;;;;;;;;;4357468;32;20306;-60
2021/03/13 04:07:28;;;;;;;106.83;60.53;;;;;;;;;;4357680;32;20254;-59
2021/03/13 04:09:54;;;;;;;123.83;71.73;;;;;;;;;;4356108;32;20321;-58
2021/03/13 04:12:20;;;;;;;107.30;63.60;;;;;;;;;;4370280;32;20742;-55
2021/03/13 04:14:47;;;;;;;112.43;68.37;;;;;;;;;;4362447;32;20778;-59
2021/03/13 04:17:14;;;;;;;86.97;52.37;;;;;;;;;;4358454;32;20316;-58
2021/03/13 04:19:40;;;;;;;95.13;54.10;;;;;;;;;;4373180;32;20764;-58
2021/03/13 04:22:06;;;;;;;107.60;58.63;;;;;;;;;;4357919;32;20219;-58
2021/03/13 04:24:32;;;;;;;105.47;57.20;;;;;;;;;;4342288;33;20495;-58
2021/03/13 04:26:58;;;;;;;106.57;58.27;;;;;;;;;;4356661;32;20329;-59
2021/03/13 04:29:24;;;;;;;105.27;59.37;;;;;;;;;;4355946;33;20264;-59
2021/03/13 04:31:50;;;;;;;115.60;66.10;;;;;;;;;;4341828;32;20242;-58
2021/03/13 04:34:16;;;;;;;115.67;67.63;;;;;;;;;;4361123;32;20648;-58
2021/03/13 04:36:44;;;;;;;108.87;62.70;;;;;;;;;;4343312;32;20326;-62
2021/03/13 04:39:10;;;;;;;96.67;58.70;;;;;;;;;;4355356;32;20301;-62
2021/03/13 04:41:37;;;;;;;101.10;57.23;;;;;;;;;;4358666;32;20526;-62
2021/03/13 04:44:05;;;;;;;105.23;56.20;;;;;;;;;;4357780;32;20859;-61
2021/03/13 04:46:38;;;;;;;93.70;53.43;;;;;;;;;;4362060;32;20296;-61
2021/03/13 04:49:06;;;;;;;101.23;57.60;;;;;;;;;;4344840;32;20288;-61
2021/03/13 04:51:33;;;;;;;104.27;61.37;;;;;;;;;;4358924;32;20241;-63
2021/03/13 04:53:58;;;;;;;109.43;64.40;;;;;;;;;;4357413;32;20335;-65
2021/03/13 04:56:24;;;;;;;104.27;61.83;;;;;;;;;;4357098;32;20281;-65
2021/03/13 04:58:50;;;;;;;105.27;61.37;;;;;;;;;;4343599;32;20663;-61
2021/03/13 05:01:15;;;;;;;111.40;63.40;;;;;;;;;;4344040;32;20323;-60
2021/03/13 05:03:41;;;;;;;111.47;64.47;;;;;;;;;;4357074;32;20299;-60
2021/03/13 05:06:07;;;;;;;49.57;32.40;;;;;;;;;;4356953;32;20231;-58
2021/03/13 05:08:32;;;;;;;93.47;52.83;;;;;;;;;;4346925;32;20280;-56
2021/03/13 05:10:58;;;;;;;129.43;87.47;;;;;;;;;;4337700;32;20376;-59
2021/03/13 05:13:24;;;;;;;152.93;99.23;;;;;;;;;;4341389;32;20268;-59
2021/03/13 05:15:49;;;;;;;157.23;99.53;;;;;;;;;;4355248;32;20707;-59
2021/03/13 05:18:15;;;;;;;136.27;82.60;;;;;;;;;;4355759;32;20226;-59
2021/03/13 05:20:40;;;;;;;134.63;80.30;;;;;;;;;;4356254;32;20387;-59
2021/03/13 05:23:06;;;;;;;156.53;85.60;;;;;;;;;;4348096;32;20436;-58
2021/03/13 05:25:31;;;;;;;147.93;83.93;;;;;;;;;;4341458;33;20306;-60
2021/03/13 05:27:57;;;;;;;143.97;82.93;;;;;;;;;;4335191;32;20379;-59
2021/03/13 05:30:23;;;;;;;142.80;79.13;;;;;;;;;;4342316;32;20317;-59
2021/03/13 05:32:48;;;;;;;123.93;74.40;;;;;;;;;;4342168;32;20250;-59
2021/03/13 05:35:14;;;;;;;161.17;92.90;;;;;;;;;;4355464;32;20724;-59
2021/03/13 05:37:40;;;;;;;122.20;70.60;;;;;;;;;;4341256;32;20250;-59
2021/03/13 05:40:08;;;;;;;119.33;70.33;;;;;;;;;;4334626;33;20310;-59
2021/03/13 05:42:37;;;;;;;119.37;71.37;;;;;;;;;;4347728;32;20656;-58
2021/03/13 05:45:04;;;;;;;89.03;55.97;;;;;;;;;;4343497;32;20286;-59
2021/03/13 05:47:30;;;;;;;80.80;50.80;;;;;;;;;;4356414;32;20257;-60
2021/03/13 05:50:06;;;;;;;111.83;64.77;;;;;;;;;;4343287;33;20274;-60
2021/03/13 05:52:37;;;;;;;123.70;79.13;;;;;;;;;;4347572;32;20234;-58
2021/03/13 05:55:08;;;;;;;83.13;50.03;;;;;;;;;;4343629;32;20710;-58
2021/03/13 05:57:34;;;;;;;79.87;47.97;;;;;;;;;;4357362;32;20295;-59
2021/03/13 06:00:01;;;;;;;79.47;48.10;;;;;;;;;;4335578;33;20227;-59
2021/03/13 06:02:27;;;;;;;81.83;53.57;;;;;;;;;;4333665;32;20345;-59
2021/03/13 06:04:53;;;;;;;88.50;52.13;;;;;;;;;;4357039;32;20293;-59
2021/03/13 06:07:23;;;;;;;85.33;47.83;;;;;;;;;;4354710;32;20230;-59
2021/03/13 06:09:57;;;;;;;73.23;45.23;;;;;;;;;;4344091;32;20597;-59
2021/03/13 06:12:24;;;;;;;62.97;38.47;;;;;;;;;;4343456;32;21095;-59
2021/03/13 06:14:50;;;;;;;59.67;37.10;;;;;;;;;;4357196;32;20206;-59
2021/03/13 06:17:16;;;;;;;75.17;43.87;;;;;;;;;;4355918;32;20308;-59
2021/03/13 06:19:51;;;;;;;86.13;48.93;;;;;;;;;;4356550;32;20678;-59
2021/03/13 06:22:40;;;;;;;78.07;43.07;;;;;;;;;;4356293;32;20275;-58
2021/03/13 06:25:14;;;;;;;78.70;45.93;;;;;;;;;;4357200;32;20298;-60
2021/03/13 06:27:41;;;;;;;80.83;45.60;;;;;;;;;;4356298;32;20253;-59
2021/03/13 06:30:09;;;;;;;79.57;48.13;;;;;;;;;;4356807;32;20210;-60
2021/03/13 06:32:36;;;;;;;89.80;54.17;;;;;;;;;;4356916;32;20372;-58
2021/03/13 06:35:24;;;;;;;93.93;56.60;;;;;;;;;;4356906;32;20356;-61
2021/03/13 06:37:51;;;;;;;84.67;57.37;;;;;;;;;;4343195;32;20289;-60
2021/03/13 06:40:29;;;;;;;98.33;57.87;;;;;;;;;;4347002;32;20336;-60
2021/03/13 06:42:55;;;;;;;82.73;54.40;;;;;;;;;;4335873;32;20323;-59
2021/03/13 06:45:22;;;;;;;96.83;56.77;;;;;;;;;;4357198;32;20302;-59
2021/03/13 06:47:49;;;;;;;77.40;49.87;;;;;;;;;;4340517;32;20235;-60
2021/03/13 06:50:24;;;;;;;96.57;62.57;;;;;;;;;;4330819;33;20672;-59
2021/03/13 06:53:09;;;;;;;73.80;48.50;;;;;;;;;;4330094;33;20669;-59
2021/03/13 06:55:35;;;;;;;78.53;51.50;;;;;;;;;;4341735;33;20300;-59
2021/03/13 06:58:11;;;;;;;70.97;47.50;;;;;;;;;;4345970;32;20683;-59
2021/03/13 07:00:38;;;;;;;82.07;50.47;;;;;;;;;;4332912;33;20266;-59
2021/03/13 07:03:05;;;;;;;92.13;51.97;;;;;;;;;;4339238;32;20214;-58
2021/03/13 07:05:31;;;;;;;75.63;46.83;;;;;;;;;;4328517;32;20243;-59
2021/03/13 07:07:57;;;;;;;95.40;55.37;;;;;;;;;;4355949;32;20289;-58
2021/03/13 07:10:27;;;;;;;108.13;63.57;;;;;;;;;;4360686;32;20301;-60
2021/03/13 07:12:53;;;;;;;103.20;64.67;;;;;;;;;;4364534;32;20273;-58
2021/03/13 07:15:24;;;;;;;102.67;68.13;;;;;;;;;;4356288;32;20301;-60
2021/03/13 07:17:52;;;;;;;111.03;64.87;;;;;;;;;;4356171;32;20337;-58
2021/03/13 07:20:24;;;;;;;98.87;60.63;;;;;;;;;;4355610;32;20289;-59
2021/03/13 07:22:54;;;;;;;90.10;59.63;;;;;;;;;;4354729;32;20249;-59
2021/03/13 07:25:22;;;;;;;93.83;62.10;;;;;;;;;;4343903;32;20206;-59
2021/03/13 07:27:53;;;;;;;110.80;69.87;;;;;;;;;;4356287;32;20364;-60
2021/03/13 07:30:19;;;;;;;114.20;68.77;;;;;;;;;;4356007;32;20833;-59
2021/03/13 07:32:49;;;;;;;115.23;75.27;;;;;;;;;;4355368;32;20218;-59
2021/03/13 07:35:17;;;;;;;102.80;65.53;;;;;;;;;;4356533;32;20194;-58
2021/03/13 07:37:46;;;;;;;100.80;62.97;;;;;;;;;;4357687;32;20281;-58
2021/03/13 07:40:16;;;;;;;97.67;59.83;;;;;;;;;;4362773;32;20222;-57
2021/03/13 07:42:46;;;;;;;76.53;48.33;;;;;;;;;;4359066;32;20234;-58
2021/03/13 07:45:12;;;;;;;70.50;45.00;;;;;;;;;;4357877;32;20270;-60
2021/03/13 07:47:42;;;;;;;71.33;46.77;;;;;;;;;;4353048;33;20384;-60
2021/03/13 07:50:13;;;;;;;72.63;48.33;;;;;;;;;;4356380;33;20284;-59
2021/03/13 07:52:40;;;;;;;87.33;52.13;;;;;;;;;;4356232;33;20218;-58
2021/03/13 07:55:14;;;;;;;97.70;50.87;;;;;;;;;;4356366;33;20738;-57
2021/03/13 07:57:44;;;;;;;76.80;50.53;;;;;;;;;;4355988;33;20262;-56
2021/03/13 08:00:11;;;;;;;79.10;48.83;;;;;;;;;;4355964;33;20237;-59
2021/03/13 08:02:38;;;;;;;75.97;48.97;;;;;;;;;;4356168;33;20215;-58
2021/03/13 08:05:23;;;;;;;90.27;54.97;;;;;;;;;;4356663;33;20206;-58
2021/03/13 08:07:52;;;;;;;85.23;53.20;;;;;;;;;;4357727;32;20308;-58
2021/03/13 08:10:53;;;;;;;80.90;56.17;;;;;;;;;;4362826;32;20246;-58
2021/03/13 08:13:27;;;;;;;87.47;53.97;;;;;;;;;;4365234;32;20332;-58
2021/03/13 08:16:04;;;;;;;87.17;53.20;;;;;;;;;;4359372;32;20210;-58
2021/03/13 08:18:50;;;;;;;99.30;60.83;;;;;;;;;;4359181;32;20688;-59
2021/03/13 08:21:21;;;;;;;90.57;54.53;;;;;;;;;;4358941;32;20276;-62
2021/03/13 08:23:51;;;;;;;78.93;53.37;;;;;;;;;;4345052;32;20230;-60
2021/03/13 08:26:43;;;;;;;92.97;53.50;;;;;;;;;;4358984;32;20210;-61
2021/03/13 08:29:10;;;;;;;80.40;54.27;;;;;;;;;;4369567;32;20310;-61
2021/03/13 08:31:36;;;;;;;81.23;55.83;;;;;;;;;;4357268;32;20206;-59
2021/03/13 08:34:04;;;;;;;89.80;57.03;;;;;;;;;;4358521;32;20305;-59
2021/03/13 08:36:46;;;;;;;86.07;55.77;;;;;;;;;;4358575;32;20861;-58
2021/03/13 08:39:23;;;;;;;82.73;54.40;;;;;;;;;;4366152;32;20388;-58
2021/03/13 08:41:53;;;;;;;80.43;56.70;;;;;;;;;;4343936;32;20279;-59
2021/03/13 08:44:18;;;;;;;94.03;53.70;;;;;;;;;;4358357;32;20312;-57
2021/03/13 08:47:00;;;;;;;67.83;45.77;;;;;;;;;;4359296;32;20703;-57
2021/03/13 08:49:28;;;;;;;77.63;49.87;;;;;;;;;;4357292;32;20218;-60
2021/03/13 08:52:03;;;;;;;87.93;54.60;;;;;;;;;;4357167;32;20254;-59
2021/03/13 08:54:37;;;;;;;80.13;50.03;;;;;;;;;;4342851;33;20703;-59
2021/03/13 08:57:17;;;;;;;93.33;57.83;;;;;;;;;;4343389;32;20246;-58
2021/03/13 08:59:57;;;;;;;99.53;58.77;;;;;;;;;;4358259;32;20223;-57
2021/03/13 09:02:28;;;;;;;118.97;63.93;;;;;;;;;;4356948;32;20254;-57
2021/03/13 09:05:00;;;;;;;99.70;64.63;;;;;;;;;;4344708;32;20584;-57
2021/03/13 09:07:26;;;;;;;115.27;65.33;;;;;;;;;;4342974;32;20347;-57
2021/03/13 09:09:56;;;;;;;114.63;65.63;;;;;;;;;;4359348;32;20317;-56
2021/03/13 09:12:22;;;;;;;151.63;72.50;;;;;;;;;;4369127;32;20245;-56
2021/03/13 09:14:53;;;;;;;136.73;66.37;;;;;;;;;;4344864;32;20304;-58
2021/03/13 09:17:20;;;;;;;73.43;43.83;;;;;;;;;;4358119;32;20389;-56
2021/03/13 09:19:47;;;;;;;78.37;46.97;;;;;;;;;;4358747;32;20257;-56
2021/03/13 09:22:14;;;;;;;114.43;72.33;;;;;;;;;;4344113;32;20302;-57
2021/03/13 09:24:39;;;;;;;117.53;69.37;;;;;;;;;;4358045;32;20222;-59
2021/03/13 09:27:05;;;;;;;100.00;62.83;;;;;;;;;;4357277;32;20264;-58
2021/03/13 09:29:40;;;;;;;68.83;44.87;;;;;;;;;;4344481;32;20222;-58
2021/03/13 09:32:11;;;;;;;55.27;35.30;;;;;;;;;;4344355;32;20225;-58
2021/03/13 09:34:41;;;;;;;69.27;38.83;;;;;;;;;;4369243;32;20288;-57
2021/03/13 09:37:16;;;;;;;48.60;31.53;;;;;;;;;;4358410;32;20289;-57
2021/03/13 09:39:44;;;;;;;48.13;32.27;;;;;;;;;;4366888;32;20218;-57
2021/03/13 09:42:21;;;;;;;49.97;30.30;;;;;;;;;;4357838;32;20265;-57
2021/03/13 09:44:54;;;;;;;43.53;28.80;;;;;;;;;;4357443;32;20202;-58
2021/03/13 09:47:40;;;;;;;33.67;25.30;;;;;;;;;;4357923;32;20226;-58
2021/03/13 09:50:08;;;;;;;40.33;22.77;;;;;;;;;;4343032;33;20199;-58
2021/03/13 09:52:42;;;;;;;28.27;20.50;;;;;;;;;;4346748;32;20218;-58
2021/03/13 09:55:13;;;;;;;27.63;18.87;;;;;;;;;;4358207;32;20316;-57
2021/03/13 09:57:45;;;;;;;34.10;20.23;;;;;;;;;;4358209;32;20214;-56
2021/03/13 10:00:21;;;;;;;47.20;27.57;;;;;;;;;;4358389;32;20206;-57
2021/03/13 10:02:52;;;;;;;28.40;17.07;;;;;;;;;;4344997;32;20407;-58
2021/03/13 10:05:22;;;;;;;28.03;20.03;;;;;;;;;;4368981;32;20332;-58
2021/03/13 10:07:51;;;;;;;32.03;18.07;;;;;;;;;;4357966;32;20333;-57
2021/03/13 10:10:17;;;;;;;37.13;20.87;;;;;;;;;;4361671;32;20532;-58
2021/03/13 10:12:48;;;;;;;50.80;29.63;;;;;;;;;;4367994;32;20294;-58
2021/03/13 10:15:25;;;;;;;36.90;21.63;;;;;;;;;;4357734;32;20217;-58
2021/03/13 10:18:10;;;;;;;29.60;15.90;;;;;;;;;;4357036;32;20307;-57
2021/03/13 10:20:53;;;;;;;33.90;19.23;;;;;;;;;;4343825;32;20241;-58
2021/03/13 10:23:19;;;;;;;24.77;14.70;;;;;;;;;;4356914;32;20305;-56
2021/03/13 10:26:08;;;;;;;28.63;17.43;;;;;;;;;;4343916;32;20336;-57
2021/03/13 10:28:39;;;;;;;53.80;24.90;;;;;;;;;;4357556;32;20233;-57
2021/03/13 10:31:13;;;;;;;33.60;16.07;;;;;;;;;;4357159;32;20241;-57
2021/03/13 10:33:44;;;;;;;58.27;31.50;;;;;;;;;;4356700;32;20320;-57
2021/03/13 10:36:11;;;;;;;12.53;9.93;;;;;;;;;;4342716;32;20324;-57
2021/03/13 10:38:42;;;;;;;18.27;11.17;;;;;;;;;;4363003;32;20229;-57
2021/03/13 10:41:09;;;;;;;38.97;21.77;;;;;;;;;;4357483;32;20274;-57
2021/03/13 10:43:37;;;;;;;25.70;13.93;;;;;;;;;;4357198;32;20222;-58
2021/03/13 10:46:06;;;;;;;43.17;21.67;;;;;;;;;;4342843;32;20292;-57
2021/03/13 10:48:38;;;;;;;38.60;19.30;;;;;;;;;;4342718;32;20262;-57
2021/03/13 10:51:04;;;;;;;45.23;26.10;;;;;;;;;;4356623;32;20218;-56
2021/03/13 10:53:38;;;;;;;39.63;21.23;;;;;;;;;;4356178;32;20242;-57
2021/03/13 10:56:05;;;;;;;21.60;13.20;;;;;;;;;;4356315;32;20258;-57
2021/03/13 10:58:33;;;;;;;102.80;43.53;;;;;;;;;;4356756;32;20302;-57
2021/03/13 11:01:01;;;;;;;21.07;12.90;;;;;;;;;;4356251;32;20278;-56
2021/03/13 11:03:26;;;;;;;15.63;10.50;;;;;;;;;;4356170;32;20668;-56
2021/03/13 11:05:53;;;;;;;14.43;11.27;;;;;;;;;;4355067;32;20256;-56
2021/03/13 11:08:20;;;;;;;16.03;12.23;;;;;;;;;;4356355;32;20877;-58
2021/03/13 11:10:47;;;;;;;29.97;15.40;;;;;;;;;;4363801;32;20296;-57
2021/03/13 11:13:13;;;;;;;21.40;11.43;;;;;;;;;;4362632;32;20324;-56
2021/03/13 11:15:39;;;;;;;21.53;11.77;;;;;;;;;;4355218;32;20348;-56
2021/03/13 11:18:05;;;;;;;15.63;10.23;;;;;;;;;;4356071;32;20240;-56
2021/03/13 11:20:31;;;;;;;17.90;10.80;;;;;;;;;;4356098;32;20281;-56
2021/03/13 11:22:56;;;;;;;31.37;19.13;;;;;;;;;;4356070;32;20313;-56
2021/03/13 11:25:22;;;;;;;29.80;16.77;;;;;;;;;;4356914;32;20292;-56
2021/03/13 11:27:48;;;;;;;29.57;16.70;;;;;;;;;;4342595;32;20292;-57
2021/03/13 11:30:14;;;;;;;38.17;24.17;;;;;;;;;;4355894;32;20331;-57
2021/03/13 11:32:40;;;;;;;19.80;14.03;;;;;;;;;;4356155;32;20309;-56
2021/03/13 11:35:07;;;;;;;27.37;16.83;;;;;;;;;;4356226;32;20607;-57
2021/03/13 11:37:32;;;;;;;20.17;14.20;;;;;;;;;;4343260;32;20234;-56
2021/03/13 11:39:58;;;;;;;25.33;17.17;;;;;;;;;;4351063;32;20332;-56
2021/03/13 11:42:30;;;;;;;19.93;13.60;;;;;;;;;;4356184;32;20652;-57
2021/03/13 11:44:56;;;;;;;20.40;12.43;;;;;;;;;;4356710;32;20198;-56
2021/03/13 11:47:26;;;;;;;31.40;18.43;;;;;;;;;;4356168;32;20645;-57
2021/03/13 11:49:52;;;;;;;18.83;13.97;;;;;;;;;;4356498;33;20234;-57
2021/03/13 11:52:18;;;;;;;27.87;18.50;;;;;;;;;;4355997;33;20754;-56
2021/03/13 11:54:48;;;;;;;33.87;21.10;;;;;;;;;;4356668;32;20742;-59
2021/03/13 11:57:15;;;;;;;34.60;22.40;;;;;;;;;;4355893;33;20474;-56
2021/03/13 11:59:43;;;;;;;33.27;21.60;;;;;;;;;;4355800;32;20214;-56
2021/03/13 12:02:09;;;;;;;31.33;20.73;;;;;;;;;;4342592;33;20268;-57
2021/03/13 12:04:34;;;;;;;25.73;15.50;;;;;;;;;;4356100;33;20525;-57
2021/03/13 12:07:00;;;;;;;23.83;16.10;;;;;;;;;;4355016;32;20265;-58
2021/03/13 12:09:26;;;;;;;20.50;12.50;;;;;;;;;;4356219;32;20279;-58
2021/03/13 12:11:51;;;;;;;20.70;8.80;;;;;;;;;;4356061;33;20242;-58
2021/03/13 12:14:17;;;;;;;16.83;9.43;;;;;;;;;;4355658;32;20300;-57
2021/03/13 12:16:42;;;;;;;24.73;18.57;;;;;;;;;;4343278;33;20597;-58
2021/03/13 12:19:08;;;;;;;15.60;11.03;;;;;;;;;;4354413;33;20324;-57
2021/03/13 12:21:34;;;;;;;22.10;15.67;;;;;;;;;;4342916;33;20363;-56
2021/03/13 12:23:59;;;;;;;26.13;16.93;;;;;;;;;;4352718;33;20250;-56
2021/03/13 12:26:25;;;;;;;16.73;12.30;;;;;;;;;;4355182;33;20344;-56
2021/03/13 12:28:51;;;;;;;33.20;16.87;;;;;;;;;;4355131;32;20704;-56
2021/03/13 12:31:18;;;;;;;41.13;24.73;;;;;;;;;;4356488;33;20278;-57
2021/03/13 12:33:44;;;;;;;32.47;18.70;;;;;;;;;;4342568;33;20766;-57
2021/03/13 12:36:10;;;;;;;24.33;13.73;;;;;;;;;;4356589;32;20352;-55
2021/03/13 12:38:36;;;;;;;19.17;11.30;;;;;;;;;;4355964;33;20265;-56
2021/03/13 12:41:03;;;;;;;18.83;10.87;;;;;;;;;;4342808;33;20719;-55
2021/03/13 12:43:28;;;;;;;13.10;10.07;;;;;;;;;;4336978;33;20313;-56
2021/03/13 12:45:54;;;;;;;16.87;11.63;;;;;;;;;;4356020;32;20429;-56
2021/03/13 12:48:20;;;;;;;17.10;12.53;;;;;;;;;;4348902;32;20257;-55
2021/03/13 12:50:46;;;;;;;12.57;8.47;;;;;;;;;;4326841;33;20675;-55
2021/03/13 12:53:11;;;;;;;9.10;5.87;;;;;;;;;;4335471;32;20230;-55
2021/03/13 12:55:37;;;;;;;14.57;6.20;;;;;;;;;;4345337;32;20297;-55
2021/03/13 12:58:03;;;;;;;6.53;4.50;;;;;;;;;;4344454;32;20281;-54
2021/03/13 13:00:28;;;;;;;5.87;4.17;;;;;;;;;;4345784;32;20763;-55
2021/03/13 13:02:54;;;;;;;9.90;4.63;;;;;;;;;;4342975;33;20277;-55
2021/03/13 13:05:20;;;;;;;8.40;5.23;;;;;;;;;;4344075;32;20344;-55
2021/03/13 13:07:46;;;;;;;9.37;4.10;;;;;;;;;;4358108;32;20261;-55
2021/03/13 13:10:18;;;;;;;9.27;4.70;;;;;;;;;;4357643;32;20315;-56
2021/03/13 13:12:44;;;;;;;7.87;5.47;;;;;;;;;;4348702;32;20218;-54
2021/03/13 13:15:10;;;;;;;11.87;5.30;;;;;;;;;;4358831;32;20294;-56
2021/03/13 13:17:37;;;;;;;12.13;5.47;;;;;;;;;;4358619;32;20246;-57
2021/03/13 13:20:08;;;;;;;16.50;9.50;;;;;;;;;;4345271;32;20316;-56
2021/03/13 13:22:42;;;;;;;6.03;4.27;;;;;;;;;;4343889;32;20238;-56
2021/03/13 13:25:09;;;;;;;6.60;3.83;;;;;;;;;;4359111;32;20410;-55
2021/03/13 13:27:34;;;;;;;8.37;3.87;;;;;;;;;;4357954;32;20632;-55
2021/03/13 13:30:00;;;;;;;14.80;8.47;;;;;;;;;;4358346;32;20300;-55
2021/03/13 13:32:26;;;;;;;10.37;5.23;;;;;;;;;;4343916;32;20222;-55
2021/03/13 13:34:52;;;;;;;6.40;4.67;;;;;;;;;;4358184;32;20346;-56
2021/03/13 13:37:19;;;;;;;10.20;4.93;;;;;;;;;;4358123;32;20693;-55
2021/03/13 13:39:45;;;;;;;12.00;5.33;;;;;;;;;;4366731;32;20234;-55
2021/03/13 13:42:10;;;;;;;6.93;4.20;;;;;;;;;;4343297;32;20254;-55
2021/03/13 13:44:36;;;;;;;5.93;4.40;;;;;;;;;;4356838;32;20695;-55
2021/03/13 13:47:02;;;;;;;6.90;3.50;;;;;;;;;;4357407;32;20219;-55
2021/03/13 13:49:27;;;;;;;7.23;4.07;;;;;;;;;;4357642;32;20675;-55
2021/03/13 13:51:53;;;;;;;5.97;4.00;;;;;;;;;;4344016;32;20272;-55
2021/03/13 13:54:18;;;;;;;4.43;3.50;;;;;;;;;;4357562;32;20312;-55
2021/03/13 13:56:43;;;;;;;3.20;2.33;;;;;;;;;;4361815;32;20344;-55
2021/03/13 13:59:09;;;;;;;9.30;3.43;;;;;;;;;;4364148;32;20555;-55
2021/03/13 14:01:35;;;;;;;4.67;3.40;;;;;;;;;;4357849;32;20447;-56
2021/03/13 14:04:01;;;;;;;7.47;4.43;;;;;;;;;;4343827;33;20290;-56
2021/03/13 14:06:27;;;;;;;11.80;4.85;;;;;;;;;;4343798;32;20240;-57
2021/03/13 14:08:53;;;;;;;7.60;4.60;;;;;;;;;;4343110;32;20604;-56
2021/03/13 14:11:19;;;;;;;9.13;3.70;;;;;;;;;;4363141;32;20716;-56
2021/03/13 14:13:44;;;;;;;5.80;3.93;;;;;;;;;;4346429;32;20262;-56
2021/03/13 14:16:10;;;;;;;7.40;4.15;;;;;;;;;;4344710;32;20723;-56
2021/03/13 14:18:35;;;;;;;8.73;4.30;;;;;;;;;;4356324;32;20237;-56
2021/03/13 14:21:01;;;;;;;6.70;4.57;;;;;;;;;;4358206;32;20746;-57
2021/03/13 14:23:26;;;;;;;7.78;5.20;;;;;;;;;;4357672;32;20356;-55
2021/03/13 14:25:52;;;;;;;6.82;4.43;;;;;;;;;;4358278;32;20373;-55